createdAt,value
2017-05-24T08:44:36.622Z,205
2017-05-24T08:45:08.918Z,205
2017-05-24T08:45:41.491Z,195
2017-05-24T08:46:14.312Z,190
2017-05-24T08:46:46.600Z,215
2017-05-24T08:47:18.884Z,190
2017-05-24T08:47:51.171Z,185
2017-05-24T08:48:23.465Z,220
2017-05-24T08:48:55.767Z,235
2017-05-24T08:49:28.144Z,185
2017-05-24T08:50:00.439Z,185
2017-05-24T08:50:32.986Z,210
2017-05-24T08:51:05.287Z,195
2017-05-24T08:51:37.652Z,200
2017-05-24T08:52:09.935Z,210
2017-05-24T08:52:42.232Z,215
2017-05-24T08:53:14.534Z,205
2017-05-24T08:53:47.041Z,210
2017-05-24T08:54:19.356Z,200
2017-05-24T08:54:51.392Z,215
2017-05-24T08:55:23.684Z,195
2017-05-24T08:55:55.985Z,185
2017-05-24T08:56:28.256Z,185
2017-05-24T08:57:00.724Z,195
2017-05-24T08:57:33.090Z,200
2017-05-24T08:58:05.572Z,195
2017-05-24T08:58:37.869Z,195
2017-05-24T08:59:10.154Z,200
2017-05-24T08:59:42.508Z,205
2017-05-24T09:00:14.823Z,210
2017-05-24T09:00:47.119Z,195
2017-05-24T09:01:19.390Z,195
2017-05-24T09:01:51.675Z,200
2017-05-24T09:02:23.955Z,200
2017-05-24T09:02:56.247Z,210
2017-05-24T09:03:28.541Z,220
2017-05-24T09:05:20.158Z,200
2017-05-24T09:05:52.478Z,205
2017-05-24T09:06:24.757Z,200
2017-05-24T09:06:57.055Z,195
2017-05-24T09:07:29.352Z,190
2017-05-24T09:08:01.650Z,185
2017-05-24T09:08:33.957Z,175
2017-05-24T09:09:06.238Z,170
2017-05-24T09:09:38.529Z,170
2017-05-24T09:10:10.831Z,175
2017-05-24T09:10:43.103Z,175
2017-05-24T09:11:15.432Z,175
2017-05-24T09:11:47.714Z,175
2017-05-24T09:12:20.003Z,175
2017-05-24T09:12:52.324Z,175
2017-05-24T09:13:24.627Z,170
2017-05-24T09:13:56.923Z,170
2017-05-24T09:14:29.207Z,175
2017-05-24T09:15:01.493Z,175
2017-05-24T09:15:34.308Z,180
2017-05-24T09:16:06.627Z,180
2017-05-24T09:16:38.905Z,180
2017-05-24T09:17:11.195Z,175
2017-05-24T09:17:43.519Z,175
2017-05-24T09:18:15.820Z,175
2017-05-24T09:18:48.323Z,180
2017-05-24T09:19:20.619Z,175
2017-05-24T09:19:52.891Z,175
2017-05-24T09:20:25.182Z,180
2017-05-24T09:20:57.481Z,190
2017-05-24T09:21:29.778Z,190
2017-05-24T09:22:02.068Z,190
2017-05-24T09:22:34.363Z,190
2017-05-24T09:23:06.673Z,185
2017-05-24T09:23:38.945Z,185
2017-05-24T09:24:11.199Z,190
2017-05-24T09:24:43.491Z,190
2017-05-24T09:25:16.597Z,190
2017-05-24T09:25:48.862Z,195
2017-05-24T09:26:21.121Z,200
2017-05-24T09:26:53.381Z,210
2017-05-24T09:27:25.668Z,225
2017-05-24T09:27:57.919Z,210
2017-05-24T09:28:30.208Z,200
2017-05-24T09:29:02.970Z,205
2017-05-24T09:29:35.222Z,200
2017-05-24T09:30:07.535Z,215
2017-05-24T09:30:39.793Z,220
2017-05-24T09:31:12.063Z,225
2017-05-24T09:31:44.438Z,205
2017-05-24T09:32:16.712Z,200
2017-05-24T09:32:49.012Z,210
2017-05-24T09:33:21.305Z,215
2017-05-24T09:33:53.592Z,220
2017-05-24T09:34:25.889Z,215
2017-05-24T09:34:58.179Z,215
2017-05-24T09:35:30.456Z,215
2017-05-24T09:36:02.762Z,215
2017-05-24T09:36:35.050Z,205
2017-05-24T09:37:07.363Z,190
2017-05-24T09:37:39.659Z,180
2017-05-24T09:38:11.925Z,175
2017-05-24T09:38:44.231Z,175
2017-05-24T09:39:19.072Z,175
2017-05-24T09:39:51.364Z,175
2017-05-24T09:40:23.657Z,175
2017-05-24T09:40:55.955Z,175
2017-05-24T09:41:30.546Z,175
2017-05-24T09:42:02.808Z,175
2017-05-24T09:42:35.129Z,175
2017-05-24T09:43:07.400Z,175
2017-05-24T09:43:39.679Z,175
2017-05-24T09:44:11.932Z,175
2017-05-24T09:44:44.243Z,175
2017-05-24T09:45:17.713Z,175
2017-05-24T09:45:50.536Z,175
2017-05-24T09:46:22.786Z,170
2017-05-24T09:46:55.032Z,170
2017-05-24T09:47:27.306Z,170
2017-05-24T09:47:59.564Z,170
2017-05-24T09:48:31.826Z,165
2017-05-24T09:49:04.076Z,160
2017-05-24T09:49:37.593Z,160
2017-05-24T09:50:09.918Z,165
2017-05-24T09:50:42.198Z,165
2017-05-24T09:51:14.442Z,165
2017-05-24T09:51:46.689Z,170
2017-05-24T09:52:18.934Z,170
2017-05-24T09:52:51.216Z,170
2017-05-24T09:53:25.117Z,175
2017-05-24T09:53:57.411Z,175
2017-05-24T09:54:29.703Z,180
2017-05-24T09:55:02.014Z,185
2017-05-24T09:55:34.317Z,190
2017-05-24T09:56:06.609Z,190
2017-05-24T09:56:38.908Z,185
2017-05-24T09:57:11.202Z,180
2017-05-24T09:57:43.498Z,175
2017-05-24T09:58:15.796Z,170
2017-05-24T09:58:48.084Z,160
2017-05-24T09:59:20.387Z,150
2017-05-24T09:59:52.670Z,145
2017-05-24T10:00:24.936Z,145
2017-05-24T10:00:57.224Z,140
2017-05-24T10:01:29.512Z,140
2017-05-24T10:02:01.815Z,135
2017-05-24T10:02:34.117Z,135
2017-05-24T10:03:06.414Z,135
2017-05-24T10:03:41.725Z,140
2017-05-24T10:04:16.566Z,140
2017-05-24T10:04:50.739Z,145
2017-05-24T10:05:23.080Z,155
2017-05-24T10:05:55.375Z,160
2017-05-24T10:06:27.709Z,160
2017-05-24T10:07:00.004Z,155
2017-05-24T10:07:32.284Z,155
2017-05-24T10:08:04.574Z,155
2017-05-24T10:08:36.967Z,150
2017-05-24T10:09:09.281Z,150
2017-05-24T10:09:41.628Z,145
2017-05-24T10:10:13.966Z,145
2017-05-24T10:10:46.233Z,145
2017-05-24T10:11:18.528Z,150
2017-05-24T10:13:10.098Z,155
2017-05-24T10:13:42.383Z,155
2017-05-24T10:14:15.116Z,155
2017-05-24T10:14:47.419Z,155
2017-05-24T10:15:19.721Z,150
2017-05-24T10:15:52.036Z,155
2017-05-24T10:16:24.456Z,160
2017-05-24T10:16:56.759Z,170
2017-05-24T10:17:29.046Z,170
2017-05-24T10:18:01.370Z,170
2017-05-24T10:18:33.649Z,175
2017-05-24T10:19:05.991Z,175
2017-05-24T10:19:38.427Z,170
2017-05-24T10:20:10.731Z,165
2017-05-24T10:20:43.026Z,165
2017-05-24T10:21:15.318Z,175
2017-05-24T10:21:47.612Z,185
2017-05-24T10:22:19.909Z,205
2017-05-24T10:22:52.217Z,215
2017-05-24T10:23:24.526Z,220
2017-05-24T10:23:56.820Z,220
2017-05-24T10:24:29.120Z,225
2017-05-24T10:25:01.414Z,225
2017-05-24T10:25:33.712Z,225
2017-05-24T10:26:06.000Z,230
2017-05-24T10:26:38.273Z,235
2017-05-24T10:27:10.558Z,235
2017-05-24T10:29:02.265Z,230
2017-05-24T10:29:34.572Z,235
2017-05-24T10:30:06.870Z,235
2017-05-24T10:30:39.148Z,250
2017-05-24T10:31:11.499Z,270
2017-05-24T10:31:43.785Z,265
2017-05-24T10:32:16.079Z,270
2017-05-24T10:32:48.341Z,275
2017-05-24T10:33:20.587Z,280
2017-05-24T10:33:52.856Z,285
2017-05-24T10:34:25.964Z,270
2017-05-24T10:34:58.214Z,280
2017-05-24T10:35:31.105Z,290
2017-05-24T10:36:03.351Z,300
2017-05-24T10:36:35.618Z,295
2017-05-24T10:37:07.876Z,285
2017-05-24T10:37:40.136Z,310
2017-05-24T10:38:12.403Z,315
2017-05-24T10:38:44.673Z,315
2017-05-24T10:39:16.931Z,315
2017-05-24T10:39:49.199Z,290
2017-05-24T10:40:21.474Z,285
2017-05-24T10:40:53.738Z,275
2017-05-24T10:41:26.634Z,260
2017-05-24T10:41:58.902Z,250
2017-05-24T10:42:31.186Z,255
2017-05-24T10:43:03.448Z,245
2017-05-24T10:43:36.640Z,240
2017-05-24T10:44:09.593Z,235
2017-05-24T10:44:41.837Z,230
2017-05-24T10:45:14.163Z,230
2017-05-24T10:45:47.078Z,235
2017-05-24T10:46:19.337Z,240
2017-05-24T10:46:51.597Z,240
2017-05-24T10:47:23.857Z,240
2017-05-24T10:47:56.132Z,245
2017-05-24T10:48:28.432Z,250
2017-05-24T10:49:00.696Z,250
2017-05-24T10:49:32.948Z,250
2017-05-24T10:50:05.171Z,250
2017-05-24T10:50:37.450Z,250
2017-05-24T10:51:09.720Z,250
2017-05-24T10:51:41.991Z,250
2017-05-24T10:52:14.235Z,250
2017-05-24T10:52:46.510Z,255
2017-05-24T10:53:18.817Z,260
2017-05-24T10:53:51.117Z,265
2017-05-24T10:54:23.461Z,280
2017-05-24T10:54:55.747Z,270
2017-05-24T10:55:28.034Z,260
2017-05-24T10:56:00.339Z,250
2017-05-24T10:56:32.629Z,250
2017-05-24T10:57:04.923Z,240
2017-05-24T10:57:37.225Z,240
2017-05-24T10:58:09.529Z,240
2017-05-24T10:58:41.815Z,245
2017-05-24T10:59:14.100Z,240
2017-05-24T10:59:46.395Z,255
2017-05-24T11:00:18.701Z,240
2017-05-24T11:00:51.000Z,240
2017-05-24T11:01:23.287Z,240
2017-05-24T11:01:55.569Z,235
2017-05-24T11:02:27.862Z,240
2017-05-24T11:03:00.173Z,250
2017-05-24T11:03:32.450Z,245
2017-05-24T11:04:04.723Z,245
2017-05-24T11:04:36.984Z,240
2017-05-24T11:05:09.240Z,245
2017-05-24T11:05:41.554Z,260
2017-05-24T11:06:13.825Z,275
2017-05-24T11:06:46.131Z,280
2017-05-24T11:07:18.383Z,275
2017-05-24T11:07:50.639Z,260
2017-05-24T11:08:22.889Z,245
2017-05-24T11:08:55.141Z,240
2017-05-24T11:09:27.544Z,235
2017-05-24T11:09:59.814Z,235
2017-05-24T11:10:32.098Z,235
2017-05-24T11:11:04.353Z,240
2017-05-24T11:11:37.598Z,245
2017-05-24T11:12:09.846Z,250
2017-05-24T11:12:42.139Z,260
2017-05-24T11:13:15.458Z,265
2017-05-24T11:13:47.828Z,255
2017-05-24T11:14:20.123Z,255
2017-05-24T11:14:52.427Z,265
2017-05-24T11:15:24.719Z,280
2017-05-24T11:15:57.024Z,300
2017-05-24T11:16:29.376Z,315
2017-05-24T11:17:01.668Z,315
2017-05-24T11:17:33.961Z,315
2017-05-24T11:18:06.256Z,320
2017-05-24T11:18:38.539Z,325
2017-05-24T11:19:10.828Z,330
2017-05-24T11:19:43.114Z,335
2017-05-24T11:20:15.403Z,315
2017-05-24T11:20:47.713Z,295
2017-05-24T11:21:20.020Z,275
2017-05-24T11:21:52.315Z,290
2017-05-24T11:22:24.608Z,300
2017-05-24T11:22:56.903Z,295
2017-05-24T11:23:29.192Z,280
2017-05-24T11:24:01.497Z,265
2017-05-24T11:24:33.752Z,250
2017-05-24T11:25:06.000Z,240
2017-05-24T11:25:38.254Z,220
2017-05-24T11:26:10.497Z,220
2017-05-24T11:26:42.771Z,225
2017-05-24T11:27:15.044Z,235
2017-05-24T11:27:47.298Z,225
2017-05-24T11:28:19.552Z,215
2017-05-24T11:28:51.817Z,215
2017-05-24T11:29:24.682Z,230
2017-05-24T11:29:56.963Z,240
2017-05-24T11:30:29.234Z,250
2017-05-24T11:31:01.486Z,250
2017-05-24T11:31:33.746Z,255
2017-05-24T11:32:06.620Z,260
2017-05-24T11:32:38.883Z,265
2017-05-24T11:33:11.133Z,255
2017-05-24T11:33:43.393Z,225
2017-05-24T11:34:15.666Z,195
2017-05-24T11:34:47.998Z,195
2017-05-24T11:35:20.248Z,205
2017-05-24T11:35:52.499Z,205
2017-05-24T11:36:24.769Z,200
2017-05-24T11:36:57.069Z,205
2017-05-24T11:37:29.335Z,225
2017-05-24T11:38:01.593Z,240
2017-05-24T11:38:33.861Z,255
2017-05-24T11:39:06.109Z,230
2017-05-24T11:39:38.368Z,225
2017-05-24T11:40:11.558Z,225
2017-05-24T11:40:44.671Z,235
2017-05-24T11:41:19.127Z,225
2017-05-24T11:41:51.566Z,200
2017-05-24T11:42:24.621Z,195
2017-05-24T11:42:56.885Z,195
2017-05-24T11:43:30.014Z,200
2017-05-24T11:44:03.180Z,200
2017-05-24T11:44:35.464Z,195
2017-05-24T11:45:07.715Z,205
2017-05-24T11:45:39.963Z,220
2017-05-24T11:46:12.213Z,235
2017-05-24T11:46:44.475Z,240
2017-05-24T11:47:17.533Z,250
2017-05-24T11:47:49.782Z,250
2017-05-24T11:48:22.050Z,240
2017-05-24T11:48:54.301Z,220
2017-05-24T11:49:27.091Z,190
2017-05-24T11:50:00.100Z,170
2017-05-24T11:50:32.350Z,155
2017-05-24T11:51:04.725Z,155
2017-05-24T11:51:37.705Z,165
2017-05-24T11:52:10.090Z,175
2017-05-24T11:52:42.375Z,180
2017-05-24T11:53:14.661Z,180
2017-05-24T11:53:46.957Z,175
2017-05-24T11:54:19.262Z,170
2017-05-24T11:54:51.549Z,165
2017-05-24T11:55:23.821Z,160
2017-05-24T11:55:56.295Z,150
2017-05-24T11:56:28.674Z,155
2017-05-24T11:57:00.960Z,160
2017-05-24T11:57:33.272Z,165
2017-05-24T11:58:05.635Z,160
2017-05-24T11:58:37.927Z,155
2017-05-24T11:59:10.241Z,155
2017-05-24T11:59:42.535Z,155
2017-05-24T12:00:14.828Z,160
2017-05-24T12:00:47.134Z,165
2017-05-24T12:01:19.431Z,180
2017-05-24T12:01:51.722Z,185
2017-05-24T12:02:24.041Z,180
2017-05-24T12:02:56.300Z,170
2017-05-24T12:03:28.573Z,165
2017-05-24T12:04:00.811Z,165
2017-05-24T12:04:34.062Z,175
2017-05-24T12:05:07.133Z,185
2017-05-24T12:05:40.690Z,195
2017-05-24T12:06:12.944Z,190
2017-05-24T12:06:45.208Z,185
2017-05-24T12:07:17.463Z,175
2017-05-24T12:07:49.740Z,165
2017-05-24T12:08:22.023Z,150
2017-05-24T12:08:54.293Z,140
2017-05-24T12:09:26.545Z,130
2017-05-24T12:09:58.780Z,125
2017-05-24T12:10:31.044Z,125
2017-05-24T12:11:03.299Z,140
2017-05-24T12:11:36.696Z,160
2017-05-24T12:12:08.970Z,170
2017-05-24T12:12:41.244Z,175
2017-05-24T12:13:13.509Z,170
2017-05-24T12:13:45.882Z,165
2017-05-24T12:14:18.143Z,165
2017-05-24T12:14:50.418Z,165
2017-05-24T12:15:22.693Z,165
2017-05-24T12:15:55.722Z,160
2017-05-24T12:16:27.992Z,160
2017-05-24T12:17:00.265Z,160
2017-05-24T12:17:33.171Z,155
2017-05-24T12:18:05.416Z,145
2017-05-24T12:18:37.657Z,140
2017-05-24T12:19:09.910Z,135
2017-05-24T12:19:42.161Z,135
2017-05-24T12:20:14.506Z,130
2017-05-24T12:20:46.790Z,130
2017-05-24T12:21:19.059Z,130
2017-05-24T12:21:51.313Z,125
2017-05-24T12:22:23.555Z,125
2017-05-24T12:22:56.731Z,125
2017-05-24T12:23:29.663Z,125
2017-05-24T12:24:02.576Z,125
2017-05-24T12:24:34.842Z,125
2017-05-24T12:25:07.166Z,125
2017-05-24T12:25:39.446Z,115
2017-05-24T12:26:11.697Z,110
2017-05-24T12:26:44.105Z,110
2017-05-24T12:27:16.370Z,105
2017-05-24T12:27:48.652Z,105
2017-05-24T12:28:20.884Z,105
2017-05-24T12:28:53.151Z,105
2017-05-24T12:29:25.442Z,110
2017-05-24T12:29:57.787Z,115
2017-05-24T12:30:30.054Z,115
2017-05-24T12:31:02.461Z,115
2017-05-24T12:31:34.721Z,125
2017-05-24T12:32:07.014Z,130
2017-05-24T12:32:39.293Z,135
2017-05-24T12:33:11.547Z,135
2017-05-24T12:33:44.660Z,135
2017-05-24T12:34:17.816Z,135
2017-05-24T12:34:50.086Z,140
2017-05-24T12:35:22.370Z,135
2017-05-24T12:35:54.633Z,125
2017-05-24T12:36:26.880Z,115
